sensor_id;sensor_type;location;lat;lon;timestamp;pressure;altitude;pressure_sealevel;temperature;humidity
62634;BME280;48704;50.534;6.442;2023-07-13T00:02:25;95574.28;;;12.43;100.00
62634;BME280;48704;50.534;6.442;2023-07-13T00:04:51;95567.88;;;12.17;100.00
62634;BME280;48704;50.534;6.442;2023-07-13T00:07:17;95576.59;;;12.04;100.00
62634;BME280;48704;50.534;6.442;2023-07-13T00:09:47;95575.09;;;11.88;100.00
62634;BME280;48704;50.534;6.442;2023-07-13T00:12:31;95585.72;;;11.84;100.00
62634;BME280;48704;50.534;6.442;2023-07-13T00:14:58;95582.38;;;12.00;100.00
62634;BME280;48704;50.534;6.442;2023-07-13T00:17:24;95588.56;;;12.25;100.00
62634;BME280;48704;50.534;6.442;2023-07-13T00:19:50;95582.09;;;12.59;100.00
62634;BME280;48704;50.534;6.442;2023-07-13T00:22:15;95576.94;;;12.52;100.00
62634;BME280;48704;50.534;6.442;2023-07-13T00:24:40;95574.63;;;12.51;100.00
62634;BME280;48704;50.534;6.442;2023-07-13T00:27:08;95572.66;;;12.57;100.00
62634;BME280;48704;50.534;6.442;2023-07-13T00:29:33;95572.03;;;12.47;100.00
62634;BME280;48704;50.534;6.442;2023-07-13T00:31:58;95573.50;;;12.43;100.00
62634;BME280;48704;50.534;6.442;2023-07-13T00:34:24;95577.63;;;12.27;100.00
62634;BME280;48704;50.534;6.442;2023-07-13T00:36:49;95575.41;;;12.11;100.00
62634;BME280;48704;50.534;6.442;2023-07-13T00:39:14;95582.81;;;12.14;100.00
62634;BME280;48704;50.534;6.442;2023-07-13T00:41:39;95576.94;;;12.12;100.00
62634;BME280;48704;50.534;6.442;2023-07-13T00:44:05;95561.31;;;12.20;100.00
62634;BME280;48704;50.534;6.442;2023-07-13T00:46:32;95559.06;;;12.03;100.00
62634;BME280;48704;50.534;6.442;2023-07-13T00:49:01;95555.44;;;11.97;100.00
62634;BME280;48704;50.534;6.442;2023-07-13T00:51:38;95555.31;;;11.86;100.00
62634;BME280;48704;50.534;6.442;2023-07-13T00:54:07;95552.34;;;11.95;100.00
62634;BME280;48704;50.534;6.442;2023-07-13T00:56:35;95558.22;;;11.97;100.00
62634;BME280;48704;50.534;6.442;2023-07-13T00:59:03;95557.44;;;11.97;100.00
62634;BME280;48704;50.534;6.442;2023-07-13T01:01:30;95555.44;;;11.97;100.00
62634;BME280;48704;50.534;6.442;2023-07-13T01:03:56;95558.50;;;11.99;100.00
62634;BME280;48704;50.534;6.442;2023-07-13T01:06:22;95549.72;;;11.86;100.00
62634;BME280;48704;50.534;6.442;2023-07-13T01:08:47;95552.34;;;11.95;100.00
62634;BME280;48704;50.534;6.442;2023-07-13T01:11:18;95547.91;;;12.03;100.00
62634;BME280;48704;50.534;6.442;2023-07-13T01:13:45;95547.84;;;12.18;100.00
62634;BME280;48704;50.534;6.442;2023-07-13T01:16:25;95548.25;;;12.11;100.00
62634;BME280;48704;50.534;6.442;2023-07-13T01:18:51;95557.03;;;11.84;100.00
62634;BME280;48704;50.534;6.442;2023-07-13T01:21:16;95546.66;;;11.84;100.00
62634;BME280;48704;50.534;6.442;2023-07-13T01:23:43;95556.88;;;11.93;100.00
62634;BME280;48704;50.534;6.442;2023-07-13T01:26:09;95557.34;;;11.71;100.00
62634;BME280;48704;50.534;6.442;2023-07-13T01:28:34;95555.16;;;11.60;100.00
62634;BME280;48704;50.534;6.442;2023-07-13T01:31:02;95551.25;;;11.87;100.00
62634;BME280;48704;50.534;6.442;2023-07-13T01:33:28;95558.56;;;11.85;100.00
62634;BME280;48704;50.534;6.442;2023-07-13T01:35:53;95563.41;;;11.84;100.00
62634;BME280;48704;50.534;6.442;2023-07-13T01:38:21;95560.31;;;11.82;100.00
62634;BME280;48704;50.534;6.442;2023-07-13T01:40:47;95552.31;;;11.75;100.00
62634;BME280;48704;50.534;6.442;2023-07-13T01:43:13;95555.50;;;11.68;100.00
62634;BME280;48704;50.534;6.442;2023-07-13T01:45:39;95552.91;;;11.79;100.00
62634;BME280;48704;50.534;6.442;2023-07-13T01:48:04;95561.41;;;11.90;100.00
62634;BME280;48704;50.534;6.442;2023-07-13T01:50:32;95557.81;;;11.84;100.00
62634;BME280;48704;50.534;6.442;2023-07-13T01:52:57;95561.84;;;11.83;100.00
62634;BME280;48704;50.534;6.442;2023-07-13T01:55:22;95565.22;;;11.87;100.00
62634;BME280;48704;50.534;6.442;2023-07-13T01:57:48;95562.81;;;11.80;100.00
62634;BME280;48704;50.534;6.442;2023-07-13T02:00:14;95562.63;;;11.84;100.00
62634;BME280;48704;50.534;6.442;2023-07-13T02:02:39;95570.63;;;11.61;100.00
62634;BME280;48704;50.534;6.442;2023-07-13T02:05:05;95565.22;;;11.37;100.00
62634;BME280;48704;50.534;6.442;2023-07-13T02:07:31;95572.28;;;11.53;100.00
62634;BME280;48704;50.534;6.442;2023-07-13T02:09:57;95569.75;;;11.70;100.00
62634;BME280;48704;50.534;6.442;2023-07-13T02:12:22;95578.81;;;11.65;100.00
62634;BME280;48704;50.534;6.442;2023-07-13T02:14:47;95578.59;;;11.83;100.00
62634;BME280;48704;50.534;6.442;2023-07-13T02:17:13;95584.00;;;11.72;100.00
62634;BME280;48704;50.534;6.442;2023-07-13T02:19:38;95570.53;;;11.70;100.00
62634;BME280;48704;50.534;6.442;2023-07-13T02:22:04;95573.78;;;11.69;100.00
62634;BME280;48704;50.534;6.442;2023-07-13T02:24:29;95575.91;;;11.74;100.00
62634;BME280;48704;50.534;6.442;2023-07-13T02:26:54;95588.81;;;11.86;100.00
62634;BME280;48704;50.534;6.442;2023-07-13T02:29:20;95586.50;;;11.70;100.00
62634;BME280;48704;50.534;6.442;2023-07-13T02:31:45;95580.22;;;11.75;100.00
62634;BME280;48704;50.534;6.442;2023-07-13T02:34:10;95580.53;;;11.77;100.00
62634;BME280;48704;50.534;6.442;2023-07-13T02:36:36;95577.56;;;11.66;100.00
62634;BME280;48704;50.534;6.442;2023-07-13T02:39:02;95574.75;;;11.66;100.00
62634;BME280;48704;50.534;6.442;2023-07-13T02:41:28;95578.53;;;11.63;100.00
62634;BME280;48704;50.534;6.442;2023-07-13T02:43:54;95573.28;;;11.35;100.00
62634;BME280;48704;50.534;6.442;2023-07-13T02:46:19;95569.44;;;11.48;100.00
62634;BME280;48704;50.534;6.442;2023-07-13T02:48:45;95576.56;;;11.49;100.00
62634;BME280;48704;50.534;6.442;2023-07-13T02:51:10;95577.66;;;11.57;100.00
62634;BME280;48704;50.534;6.442;2023-07-13T02:53:36;95573.63;;;11.58;100.00
62634;BME280;48704;50.534;6.442;2023-07-13T02:56:02;95574.63;;;11.40;100.00
62634;BME280;48704;50.534;6.442;2023-07-13T02:58:27;95574.72;;;11.46;100.00
62634;BME280;48704;50.534;6.442;2023-07-13T03:00:55;95578.00;;;11.29;100.00
62634;BME280;48704;50.534;6.442;2023-07-13T03:03:20;95567.16;;;11.31;100.00
62634;BME280;48704;50.534;6.442;2023-07-13T03:05:46;95571.75;;;11.34;100.00
62634;BME280;48704;50.534;6.442;2023-07-13T03:08:15;95572.91;;;11.43;100.00
62634;BME280;48704;50.534;6.442;2023-07-13T03:10:40;95578.63;;;11.54;100.00
62634;BME280;48704;50.534;6.442;2023-07-13T03:13:05;95578.63;;;11.54;100.00
62634;BME280;48704;50.534;6.442;2023-07-13T03:15:31;95582.13;;;11.49;100.00
62634;BME280;48704;50.534;6.442;2023-07-13T03:17:56;95580.03;;;11.44;100.00
62634;BME280;48704;50.534;6.442;2023-07-13T03:20:21;95578.78;;;11.45;100.00
62634;BME280;48704;50.534;6.442;2023-07-13T03:22:47;95577.47;;;11.60;100.00
62634;BME280;48704;50.534;6.442;2023-07-13T03:25:12;95575.91;;;11.39;100.00
62634;BME280;48704;50.534;6.442;2023-07-13T03:27:38;95570.19;;;11.48;100.00
62634;BME280;48704;50.534;6.442;2023-07-13T03:30:04;95576.56;;;11.49;100.00
62634;BME280;48704;50.534;6.442;2023-07-13T03:32:30;95580.59;;;11.48;100.00
62634;BME280;48704;50.534;6.442;2023-07-13T03:34:55;95587.72;;;11.49;100.00
62634;BME280;48704;50.534;6.442;2023-07-13T03:37:20;95579.25;;;11.28;100.00
62634;BME280;48704;50.534;6.442;2023-07-13T03:39:46;95593.50;;;11.45;100.00
62634;BME280;48704;50.534;6.442;2023-07-13T03:42:11;95582.69;;;11.53;100.00
62634;BME280;48704;50.534;6.442;2023-07-13T03:44:36;95586.47;;;11.50;100.00
62634;BME280;48704;50.534;6.442;2023-07-13T03:47:02;95584.03;;;11.57;100.00
62634;BME280;48704;50.534;6.442;2023-07-13T03:49:27;95588.09;;;11.42;100.00
62634;BME280;48704;50.534;6.442;2023-07-13T03:51:52;95584.31;;;11.59;100.00
62634;BME280;48704;50.534;6.442;2023-07-13T03:54:18;95595.56;;;11.65;100.00
62634;BME280;48704;50.534;6.442;2023-07-13T03:56:43;95592.69;;;11.59;100.00
62634;BME280;48704;50.534;6.442;2023-07-13T03:59:08;95607.31;;;11.54;100.00
62634;BME280;48704;50.534;6.442;2023-07-13T04:01:34;95598.31;;;11.45;100.00
62634;BME280;48704;50.534;6.442;2023-07-13T04:03:59;95601.53;;;11.58;100.00
62634;BME280;48704;50.534;6.442;2023-07-13T04:06:29;95602.22;;;11.53;100.00
62634;BME280;48704;50.534;6.442;2023-07-13T04:08:59;95598.75;;;11.58;100.00
62634;BME280;48704;50.534;6.442;2023-07-13T04:11:27;95590.66;;;11.60;100.00
62634;BME280;48704;50.534;6.442;2023-07-13T04:13:53;95601.53;;;11.58;100.00
62634;BME280;48704;50.534;6.442;2023-07-13T04:16:19;95600.84;;;11.63;100.00
62634;BME280;48704;50.534;6.442;2023-07-13T04:18:46;95609.22;;;11.63;100.00
62634;BME280;48704;50.534;6.442;2023-07-13T04:21:13;95600.56;;;11.61;100.00
62634;BME280;48704;50.534;6.442;2023-07-13T04:23:39;95596.81;;;11.64;100.00
62634;BME280;48704;50.534;6.442;2023-07-13T04:26:05;95600.66;;;11.66;100.00
62634;BME280;48704;50.534;6.442;2023-07-13T04:28:31;95612.97;;;11.60;100.00
62634;BME280;48704;50.534;6.442;2023-07-13T04:30:56;95614.38;;;11.50;100.00
62634;BME280;48704;50.534;6.442;2023-07-13T04:33:22;95606.53;;;11.54;100.00
62634;BME280;48704;50.534;6.442;2023-07-13T04:35:51;95611.34;;;11.68;100.00
62634;BME280;48704;50.534;6.442;2023-07-13T04:38:25;95609.13;;;11.57;100.00
62634;BME280;48704;50.534;6.442;2023-07-13T04:40:55;95614.13;;;11.68;100.00
62634;BME280;48704;50.534;6.442;2023-07-13T04:43:20;95605.97;;;11.79;100.00
62634;BME280;48704;50.534;6.442;2023-07-13T04:45:45;95603.03;;;11.88;100.00
62634;BME280;48704;50.534;6.442;2023-07-13T04:48:11;95604.63;;;11.95;100.00
62634;BME280;48704;50.534;6.442;2023-07-13T04:50:37;95609.75;;;11.96;100.00
62634;BME280;48704;50.534;6.442;2023-07-13T04:53:02;95612.41;;;12.05;100.00
62634;BME280;48704;50.534;6.442;2023-07-13T04:55:29;95611.03;;;12.16;100.00
62634;BME280;48704;50.534;6.442;2023-07-13T04:57:56;95611.59;;;12.20;100.00
62634;BME280;48704;50.534;6.442;2023-07-13T05:00:21;95609.09;;;12.22;100.00
62634;BME280;48704;50.534;6.442;2023-07-13T05:02:47;95614.22;;;12.29;100.00
62634;BME280;48704;50.534;6.442;2023-07-13T05:05:12;95617.47;;;12.42;100.00
62634;BME280;48704;50.534;6.442;2023-07-13T05:07:37;95618.09;;;12.52;100.00
62634;BME280;48704;50.534;6.442;2023-07-13T05:10:03;95622.22;;;12.56;100.00
62634;BME280;48704;50.534;6.442;2023-07-13T05:12:29;95615.19;;;12.66;100.00
62634;BME280;48704;50.534;6.442;2023-07-13T05:14:54;95614.22;;;12.69;100.00
62634;BME280;48704;50.534;6.442;2023-07-13T05:17:20;95617.00;;;12.69;100.00
62634;BME280;48704;50.534;6.442;2023-07-13T05:19:45;95623.31;;;12.64;100.00
62634;BME280;48704;50.534;6.442;2023-07-13T05:22:10;95619.94;;;12.81;100.00
62634;BME280;48704;50.534;6.442;2023-07-13T05:24:36;95622.78;;;12.86;100.00
62634;BME280;48704;50.534;6.442;2023-07-13T05:27:01;95627.19;;;12.93;100.00
62634;BME280;48704;50.534;6.442;2023-07-13T05:29:26;95631.91;;;13.07;100.00
62634;BME280;48704;50.534;6.442;2023-07-13T05:31:51;95629.59;;;13.05;100.00
62634;BME280;48704;50.534;6.442;2023-07-13T05:34:17;95631.28;;;13.18;100.00
62634;BME280;48704;50.534;6.442;2023-07-13T05:36:42;95632.44;;;13.31;100.00
62634;BME280;48704;50.534;6.442;2023-07-13T05:39:08;95640.78;;;13.26;100.00
62634;BME280;48704;50.534;6.442;2023-07-13T05:41:33;95636.31;;;13.39;100.00
62634;BME280;48704;50.534;6.442;2023-07-13T05:43:59;95644.44;;;13.37;100.00
62634;BME280;48704;50.534;6.442;2023-07-13T05:46:24;95632.56;;;13.48;100.00
62634;BME280;48704;50.534;6.442;2023-07-13T05:48:50;95641.41;;;13.41;100.00
62634;BME280;48704;50.534;6.442;2023-07-13T05:51:15;95643.25;;;13.18;100.00
62634;BME280;48704;50.534;6.442;2023-07-13T05:53:40;95644.97;;;13.42;100.00
62634;BME280;48704;50.534;6.442;2023-07-13T05:56:05;95647.28;;;13.43;100.00
62634;BME280;48704;50.534;6.442;2023-07-13T05:58:31;95646.88;;;13.24;100.00
62634;BME280;48704;50.534;6.442;2023-07-13T06:01:07;95644.53;;;13.49;100.00
62634;BME280;48704;50.534;6.442;2023-07-13T06:03:33;95652.31;;;13.39;100.00
62634;BME280;48704;50.534;6.442;2023-07-13T06:05:59;95650.34;;;13.71;100.00
62634;BME280;48704;50.534;6.442;2023-07-13T06:08:27;95651.31;;;13.68;100.00
62634;BME280;48704;50.534;6.442;2023-07-13T06:10:53;95650.22;;;13.60;100.00
62634;BME280;48704;50.534;6.442;2023-07-13T06:13:18;95655.28;;;13.56;100.00
62634;BME280;48704;50.534;6.442;2023-07-13T06:15:50;95666.63;;;13.73;100.00
62634;BME280;48704;50.534;6.442;2023-07-13T06:18:16;95666.03;;;13.63;100.00
62634;BME280;48704;50.534;6.442;2023-07-13T06:20:41;95666.66;;;13.78;100.00
62634;BME280;48704;50.534;6.442;2023-07-13T06:23:06;95669.72;;;13.80;100.00
62634;BME280;48704;50.534;6.442;2023-07-13T06:25:32;95678.94;;;13.86;100.00
62634;BME280;48704;50.534;6.442;2023-07-13T06:27:57;95667.34;;;13.99;100.00
62634;BME280;48704;50.534;6.442;2023-07-13T06:30:22;95671.00;;;14.11;100.00
62634;BME280;48704;50.534;6.442;2023-07-13T06:32:47;95674.97;;;13.98;100.00
62634;BME280;48704;50.534;6.442;2023-07-13T06:35:13;95669.78;;;14.23;100.00
62634;BME280;48704;50.534;6.442;2023-07-13T06:37:38;95676.47;;;14.31;100.00
62634;BME280;48704;50.534;6.442;2023-07-13T06:40:04;95673.19;;;14.38;100.00
62634;BME280;48704;50.534;6.442;2023-07-13T06:42:30;95679.00;;;14.29;100.00
62634;BME280;48704;50.534;6.442;2023-07-13T06:44:55;95674.53;;;14.11;100.00
62634;BME280;48704;50.534;6.442;2023-07-13T06:47:20;95698.34;;;13.90;100.00
62634;BME280;48704;50.534;6.442;2023-07-13T06:49:46;95677.84;;;13.73;100.00
62634;BME280;48704;50.534;6.442;2023-07-13T06:52:11;95693.13;;;13.77;100.00
62634;BME280;48704;50.534;6.442;2023-07-13T06:54:36;95703.81;;;13.73;100.00
62634;BME280;48704;50.534;6.442;2023-07-13T06:57:01;95693.81;;;13.66;100.00
62634;BME280;48704;50.534;6.442;2023-07-13T06:59:27;95696.19;;;13.79;100.00
62634;BME280;48704;50.534;6.442;2023-07-13T07:01:52;95699.88;;;13.59;100.00
62634;BME280;48704;50.534;6.442;2023-07-13T07:04:17;95696.31;;;13.90;100.00
62634;BME280;48704;50.534;6.442;2023-07-13T07:06:42;95698.66;;;13.97;100.00
62634;BME280;48704;50.534;6.442;2023-07-13T07:09:08;95700.38;;;13.89;100.00
62634;BME280;48704;50.534;6.442;2023-07-13T07:11:34;95707.59;;;14.01;100.00
62634;BME280;48704;50.534;6.442;2023-07-13T07:13:59;95705.66;;;14.19;100.00
62634;BME280;48704;50.534;6.442;2023-07-13T07:16:25;95701.06;;;14.16;100.00
62634;BME280;48704;50.534;6.442;2023-07-13T07:18:50;95706.28;;;13.97;100.00
62634;BME280;48704;50.534;6.442;2023-07-13T07:21:15;95703.22;;;14.32;100.00
62634;BME280;48704;50.534;6.442;2023-07-13T07:23:42;95714.41;;;14.63;100.00
62634;BME280;48704;50.534;6.442;2023-07-13T07:26:07;95707.25;;;14.62;100.00
62634;BME280;48704;50.534;6.442;2023-07-13T07:28:35;95702.91;;;14.61;100.00
62634;BME280;48704;50.534;6.442;2023-07-13T07:31:00;95710.78;;;14.57;100.00
62634;BME280;48704;50.534;6.442;2023-07-13T07:33:26;95706.97;;;14.60;100.00
62634;BME280;48704;50.534;6.442;2023-07-13T07:35:51;95717.00;;;14.73;100.00
62634;BME280;48704;50.534;6.442;2023-07-13T07:38:17;95704.06;;;14.92;100.00
62634;BME280;48704;50.534;6.442;2023-07-13T07:40:42;95718.34;;;14.94;100.00
62634;BME280;48704;50.534;6.442;2023-07-13T07:43:09;95699.69;;;14.80;100.00
62634;BME280;48704;50.534;6.442;2023-07-13T07:45:35;95709.78;;;15.14;100.00
62634;BME280;48704;50.534;6.442;2023-07-13T07:48:02;95710.78;;;15.22;100.00
62634;BME280;48704;50.534;6.442;2023-07-13T07:50:28;95702.91;;;15.21;100.00
62634;BME280;48704;50.534;6.442;2023-07-13T07:52:54;95716.69;;;15.24;100.00
62634;BME280;48704;50.534;6.442;2023-07-13T07:55:21;95714.91;;;15.27;100.00
62634;BME280;48704;50.534;6.442;2023-07-13T07:57:46;95725.34;;;15.26;100.00
62634;BME280;48704;50.534;6.442;2023-07-13T08:00:12;95728.63;;;15.08;100.00
62634;BME280;48704;50.534;6.442;2023-07-13T08:02:37;95728.38;;;15.12;100.00
62634;BME280;48704;50.534;6.442;2023-07-13T08:05:03;95719.53;;;15.35;100.00
62634;BME280;48704;50.534;6.442;2023-07-13T08:07:30;95721.78;;;15.26;100.00
62634;BME280;48704;50.534;6.442;2023-07-13T08:09:56;95716.00;;;15.52;100.00
62634;BME280;48704;50.534;6.442;2023-07-13T08:12:21;95718.84;;;15.63;100.00
62634;BME280;48704;50.534;6.442;2023-07-13T08:14:50;95711.13;;;15.41;100.00
62634;BME280;48704;50.534;6.442;2023-07-13T08:17:21;95714.28;;;15.93;100.00
62634;BME280;48704;50.534;6.442;2023-07-13T08:19:47;95710.19;;;16.33;100.00
62634;BME280;48704;50.534;6.442;2023-07-13T08:22:12;95713.47;;;16.37;100.00
62634;BME280;48704;50.534;6.442;2023-07-13T08:24:37;95715.31;;;16.29;100.00
62634;BME280;48704;50.534;6.442;2023-07-13T08:27:03;95723.47;;;16.33;100.00
62634;BME280;48704;50.534;6.442;2023-07-13T08:29:28;95717.81;;;16.55;100.00
62634;BME280;48704;50.534;6.442;2023-07-13T08:31:53;95715.69;;;16.89;100.00
62634;BME280;48704;50.534;6.442;2023-07-13T08:34:19;95709.03;;;16.87;100.00
62634;BME280;48704;50.534;6.442;2023-07-13T08:36:45;95697.50;;;16.96;94.36
62634;BME280;48704;50.534;6.442;2023-07-13T08:39:11;95704.69;;;16.86;92.72
62634;BME280;48704;50.534;6.442;2023-07-13T08:41:36;95707.31;;;16.61;95.70
62634;BME280;48704;50.534;6.442;2023-07-13T08:44:03;95720.38;;;16.42;89.81
62634;BME280;48704;50.534;6.442;2023-07-13T08:46:38;95718.31;;;16.48;93.28
62634;BME280;48704;50.534;6.442;2023-07-13T08:49:10;95709.38;;;16.44;97.73
62634;BME280;48704;50.534;6.442;2023-07-13T08:51:42;95710.66;;;16.49;93.66
62634;BME280;48704;50.534;6.442;2023-07-13T08:54:20;95713.75;;;16.23;97.16
62634;BME280;48704;50.534;6.442;2023-07-13T08:56:47;95719.66;;;16.19;95.40
62634;BME280;48704;50.534;6.442;2023-07-13T08:59:16;95722.19;;;16.23;96.47
62634;BME280;48704;50.534;6.442;2023-07-13T09:04:50;95727.78;;;16.45;97.27
62634;BME280;48704;50.534;6.442;2023-07-13T09:07:22;95721.63;;;16.63;95.82
62634;BME280;48704;50.534;6.442;2023-07-13T09:13:08;95718.06;;;16.52;96.52
62634;BME280;48704;50.534;6.442;2023-07-13T09:15:41;95735.44;;;16.61;97.72
62634;BME280;48704;50.534;6.442;2023-07-13T09:18:23;95729.09;;;16.33;96.32
62634;BME280;48704;50.534;6.442;2023-07-13T09:20:53;95736.47;;;16.58;94.35
62634;BME280;48704;50.534;6.442;2023-07-13T09:23:21;95731.66;;;17.28;91.39
62634;BME280;48704;50.534;6.442;2023-07-13T09:25:49;95738.69;;;17.04;89.54
62634;BME280;48704;50.534;6.442;2023-07-13T09:28:24;95730.25;;;16.99;87.67
62634;BME280;48704;50.534;6.442;2023-07-13T09:31:15;95735.44;;;16.73;87.50
62634;BME280;48704;50.534;6.442;2023-07-13T09:33:41;95740.06;;;16.53;88.02
62634;BME280;48704;50.534;6.442;2023-07-13T09:36:21;95727.78;;;16.56;89.35
62634;BME280;48704;50.534;6.442;2023-07-13T09:39:14;95726.94;;;16.89;90.18
62634;BME280;48704;50.534;6.442;2023-07-13T09:44:38;95714.19;;;16.77;86.23
62634;BME280;48704;50.534;6.442;2023-07-13T09:47:15;95726.91;;;17.06;87.09
62634;BME280;48704;50.534;6.442;2023-07-13T09:49:41;95719.88;;;17.29;85.10
62634;BME280;48704;50.534;6.442;2023-07-13T09:52:11;95727.41;;;17.57;81.28
62634;BME280;48704;50.534;6.442;2023-07-13T09:54:37;95721.59;;;17.90;80.18
62634;BME280;48704;50.534;6.442;2023-07-13T09:57:11;95722.31;;;17.96;79.79
62634;BME280;48704;50.534;6.442;2023-07-13T09:59:40;95720.16;;;17.78;79.01
62634;BME280;48704;50.534;6.442;2023-07-13T10:02:32;95719.41;;;18.08;75.10
62634;BME280;48704;50.534;6.442;2023-07-13T10:05:24;95723.13;;;18.21;72.90
62634;BME280;48704;50.534;6.442;2023-07-13T10:07:50;95719.63;;;18.69;68.95
62634;BME280;48704;50.534;6.442;2023-07-13T10:10:22;95721.94;;;18.71;68.68
62634;BME280;48704;50.534;6.442;2023-07-13T10:12:48;95720.91;;;19.36;68.21
62634;BME280;48704;50.534;6.442;2023-07-13T10:15:17;95728.09;;;19.18;64.02
62634;BME280;48704;50.534;6.442;2023-07-13T10:17:43;95724.91;;;18.54;65.70
62634;BME280;48704;50.534;6.442;2023-07-13T10:20:09;95742.94;;;18.16;66.11
62634;BME280;48704;50.534;6.442;2023-07-13T10:25:26;95727.72;;;18.24;64.34
62634;BME280;48704;50.534;6.442;2023-07-13T10:27:58;95739.22;;;17.96;62.99
62634;BME280;48704;50.534;6.442;2023-07-13T10:30:29;95738.81;;;18.17;64.89
62634;BME280;48704;50.534;6.442;2023-07-13T10:33:02;95742.03;;;18.32;65.44
62634;BME280;48704;50.534;6.442;2023-07-13T10:35:29;95735.47;;;18.48;65.71
62634;BME280;48704;50.534;6.442;2023-07-13T10:38:01;95728.63;;;18.38;64.88
62634;BME280;48704;50.534;6.442;2023-07-13T10:40:36;95737.88;;;18.38;64.59
62634;BME280;48704;50.534;6.442;2023-07-13T10:43:09;95744.66;;;18.54;65.41
62634;BME280;48704;50.534;6.442;2023-07-13T10:45:37;95749.38;;;18.95;65.07
62634;BME280;48704;50.534;6.442;2023-07-13T10:48:03;95744.44;;;19.25;63.00
62634;BME280;48704;50.534;6.442;2023-07-13T10:50:29;95770.34;;;19.05;62.77
62634;BME280;48704;50.534;6.442;2023-07-13T10:53:03;95752.91;;;19.01;63.99
62634;BME280;48704;50.534;6.442;2023-07-13T10:58:31;95748.00;;;18.83;66.03
62634;BME280;48704;50.534;6.442;2023-07-13T11:03:33;95760.16;;;19.21;65.62
62634;BME280;48704;50.534;6.442;2023-07-13T11:08:56;95748.91;;;19.58;60.65
62634;BME280;48704;50.534;6.442;2023-07-13T11:18:44;95765.53;;;17.63;67.95
62634;BME280;48704;50.534;6.442;2023-07-13T11:21:16;95765.81;;;17.60;68.56
62634;BME280;48704;50.534;6.442;2023-07-13T11:23:43;95764.47;;;17.78;69.14
62634;BME280;48704;50.534;6.442;2023-07-13T11:29:25;95770.06;;;18.54;68.24
62634;BME280;48704;50.534;6.442;2023-07-13T11:31:53;95763.66;;;18.54;67.17
62634;BME280;48704;50.534;6.442;2023-07-13T11:34:26;95755.63;;;18.63;68.90
62634;BME280;48704;50.534;6.442;2023-07-13T11:36:52;95766.66;;;18.61;69.03
62634;BME280;48704;50.534;6.442;2023-07-13T11:39:22;95760.16;;;18.72;68.47
62634;BME280;48704;50.534;6.442;2023-07-13T11:41:53;95756.72;;;18.55;66.86
62634;BME280;48704;50.534;6.442;2023-07-13T11:44:22;95761.75;;;18.32;67.19
62634;BME280;48704;50.534;6.442;2023-07-13T11:49:17;95767.94;;;17.95;70.17
62634;BME280;48704;50.534;6.442;2023-07-13T11:51:43;95776.53;;;17.78;69.97
62634;BME280;48704;50.534;6.442;2023-07-13T11:54:34;95781.47;;;17.50;72.21
62634;BME280;48704;50.534;6.442;2023-07-13T11:57:21;95781.69;;;17.63;72.46
62634;BME280;48704;50.534;6.442;2023-07-13T11:59:50;95786.34;;;17.55;73.10
62634;BME280;48704;50.534;6.442;2023-07-13T12:02:27;95782.31;;;17.39;74.99
62634;BME280;48704;50.534;6.442;2023-07-13T12:04:53;95787.97;;;17.33;74.17
62634;BME280;48704;50.534;6.442;2023-07-13T12:07:19;95787.16;;;17.44;75.01
62634;BME280;48704;50.534;6.442;2023-07-13T12:09:45;95777.13;;;17.49;75.81
62634;BME280;48704;50.534;6.442;2023-07-13T12:12:12;95781.00;;;17.98;74.93
62634;BME280;48704;50.534;6.442;2023-07-13T12:14:38;95782.81;;;18.31;72.96
62634;BME280;48704;50.534;6.442;2023-07-13T12:17:19;95788.06;;;18.16;71.43
62634;BME280;48704;50.534;6.442;2023-07-13T12:19:47;95773.31;;;17.98;71.75
62634;BME280;48704;50.534;6.442;2023-07-13T12:22:14;95784.13;;;18.24;72.13
62634;BME280;48704;50.534;6.442;2023-07-13T12:24:41;95776.31;;;18.72;70.45
62634;BME280;48704;50.534;6.442;2023-07-13T12:27:18;95785.22;;;18.51;69.32
62634;BME280;48704;50.534;6.442;2023-07-13T12:29:57;95789.19;;;18.01;70.69
62634;BME280;48704;50.534;6.442;2023-07-13T12:32:24;95795.97;;;17.82;72.92
62634;BME280;48704;50.534;6.442;2023-07-13T12:34:52;95790.72;;;18.02;74.13
62634;BME280;48704;50.534;6.442;2023-07-13T12:37:18;95788.69;;;17.97;74.28
62634;BME280;48704;50.534;6.442;2023-07-13T12:39:46;95791.13;;;18.18;70.09
62634;BME280;48704;50.534;6.442;2023-07-13T12:42:26;95796.56;;;18.10;68.52
62634;BME280;48704;50.534;6.442;2023-07-13T12:45:01;95788.63;;;18.09;69.36
62634;BME280;48704;50.534;6.442;2023-07-13T12:47:28;95790.22;;;17.98;69.87
62634;BME280;48704;50.534;6.442;2023-07-13T12:49:56;95805.13;;;18.29;68.07
62634;BME280;48704;50.534;6.442;2023-07-13T12:54:58;95803.19;;;18.48;66.64
62634;BME280;48704;50.534;6.442;2023-07-13T12:57:25;95798.31;;;18.49;66.83
62634;BME280;48704;50.534;6.442;2023-07-13T12:59:55;95799.66;;;18.42;67.32
62634;BME280;48704;50.534;6.442;2023-07-13T13:04:48;95790.34;;;18.83;68.21
62634;BME280;48704;50.534;6.442;2023-07-13T13:07:13;95790.81;;;19.11;65.36
62634;BME280;48704;50.534;6.442;2023-07-13T13:09:39;95791.25;;;19.64;62.17
62634;BME280;48704;50.534;6.442;2023-07-13T13:12:04;95789.09;;;19.89;61.69
62634;BME280;48704;50.534;6.442;2023-07-13T13:14:31;95780.19;;;19.42;61.57
62634;BME280;48704;50.534;6.442;2023-07-13T13:16:57;95784.97;;;19.03;63.18
62634;BME280;48704;50.534;6.442;2023-07-13T13:19:27;95796.47;;;18.87;61.91
62634;BME280;48704;50.534;6.442;2023-07-13T13:21:54;95800.94;;;19.01;63.25
62634;BME280;48704;50.534;6.442;2023-07-13T13:24:23;95800.00;;;19.17;63.38
62634;BME280;48704;50.534;6.442;2023-07-13T13:26:50;95798.72;;;19.37;61.38
62634;BME280;48704;50.534;6.442;2023-07-13T13:29:19;95788.09;;;19.24;60.17
62634;BME280;48704;50.534;6.442;2023-07-13T13:31:45;95786.72;;;19.31;59.84
62634;BME280;48704;50.534;6.442;2023-07-13T13:34:12;95785.31;;;19.67;59.74